Time;durP1;ratioP1;P1;durP2;ratioP2;P2;SDS_P1;SDS_P2;PMS_P1;PMS_P2;Temp;Humidity;BMP_temperature;BMP_pressure;BME280_temperature;BME280_humidity;BME280_pressure;Samples;Min_cycle;Max_cycle;Signal;HPM_P1;HPM_P2
2024/04/18 00:00:31;;;;;;;8.87;4.47;;;2.40;99.90;;;;;;5393051;26;20011;-88
2024/04/18 00:02:57;;;;;;;8.73;4.90;;;2.30;99.90;;;;;;5393924;26;20090;-89
2024/04/18 00:05:22;;;;;;;4.80;4.00;;;2.30;99.90;;;;;;5392144;26;20012;-89
2024/04/18 00:07:48;;;;;;;9.07;4.50;;;2.20;99.90;;;;;;5393494;26;19999;-89
2024/04/18 00:10:14;;;;;;;6.30;4.23;;;2.20;99.90;;;;;;5395571;26;20014;-88
2024/04/18 00:12:40;;;;;;;5.50;4.50;;;2.20;99.90;;;;;;5391332;26;20023;-89
2024/04/18 00:15:08;;;;;;;6.40;4.43;;;2.20;99.90;;;;;;5393734;26;20014;-88
2024/04/18 00:17:34;;;;;;;6.93;4.40;;;2.10;99.90;;;;;;5394025;26;20018;-89
2024/04/18 00:19:59;;;;;;;6.33;4.33;;;2.10;99.90;;;;;;5392517;26;20015;-89
2024/04/18 00:22:27;;;;;;;7.07;4.47;;;2.10;99.90;;;;;;5392244;26;20000;-90
2024/04/18 00:24:53;;;;;;;7.20;4.40;;;2.10;99.90;;;;;;5358499;26;20000;-90
2024/04/18 00:27:18;;;;;;;6.63;5.13;;;2.10;99.90;;;;;;5393206;26;20082;-90
2024/04/18 00:29:44;;;;;;;9.50;5.00;;;2.10;99.90;;;;;;5395430;26;20003;-89
2024/04/18 00:32:10;;;;;;;8.23;5.67;;;2.20;99.90;;;;;;5392735;26;20094;-89
2024/04/18 00:34:36;;;;;;;6.53;5.20;;;2.10;99.90;;;;;;5391824;26;20504;-88
2024/04/18 00:37:01;;;;;;;11.10;4.73;;;2.10;99.90;;;;;;5392231;26;20013;-89
2024/04/18 00:39:27;;;;;;;6.43;4.30;;;2.10;99.90;;;;;;5391528;26;20055;-90
2024/04/18 00:41:53;;;;;;;9.17;5.47;;;2.10;99.90;;;;;;5391570;26;20090;-88
2024/04/18 00:44:21;;;;;;;9.77;5.03;;;2.10;99.90;;;;;;5391430;26;20031;-89
2024/04/18 00:46:48;;;;;;;8.50;4.60;;;2.10;99.90;;;;;;5393512;26;20072;-88
2024/04/18 00:49:15;;;;;;;7.30;5.10;;;2.10;99.90;;;;;;5392023;26;20513;-89
2024/04/18 00:51:40;;;;;;;8.77;5.27;;;2.10;99.90;;;;;;5389388;26;20012;-89
2024/04/18 00:54:09;;;;;;;7.10;5.03;;;2.10;99.90;;;;;;5391677;26;20007;-89
2024/04/18 00:56:35;;;;;;;8.97;5.03;;;2.10;99.90;;;;;;5391729;26;20455;-89
2024/04/18 00:59:02;;;;;;;8.27;5.50;;;2.10;99.90;;;;;;5360877;26;20739;-88
2024/04/18 01:01:29;;;;;;;6.87;4.93;;;2.10;99.90;;;;;;5389530;26;20476;-89
2024/04/18 01:03:56;;;;;;;9.23;5.97;;;2.10;99.90;;;;;;5391140;26;20476;-89
2024/04/18 01:06:22;;;;;;;7.27;5.00;;;2.20;99.90;;;;;;5389960;26;20004;-89
2024/04/18 01:08:47;;;;;;;7.10;5.03;;;2.20;99.90;;;;;;5357911;26;20007;-90
2024/04/18 01:11:14;;;;;;;9.37;5.10;;;2.20;99.90;;;;;;5391191;26;20077;-89
2024/04/18 01:13:40;;;;;;;9.63;5.73;;;2.20;99.90;;;;;;5388698;26;20996;-90
2024/04/18 01:16:05;;;;;;;8.77;5.90;;;2.30;99.90;;;;;;5390176;26;20101;-89
2024/04/18 01:18:32;;;;;;;8.17;5.30;;;2.30;99.90;;;;;;5390579;26;20003;-88
2024/04/18 01:20:57;;;;;;;6.17;4.93;;;2.30;99.90;;;;;;5359835;26;20039;-89
2024/04/18 01:23:26;;;;;;;6.90;5.17;;;2.30;99.90;;;;;;5360135;26;20061;-89
2024/04/18 01:25:51;;;;;;;7.70;5.33;;;2.30;99.90;;;;;;5395562;26;20008;-89
2024/04/18 01:28:17;;;;;;;10.00;5.60;;;2.40;99.90;;;;;;5394823;26;20018;-90
2024/04/18 01:30:42;;;;;;;8.50;5.87;;;2.30;99.90;;;;;;5394324;26;20118;-88
2024/04/18 01:33:08;;;;;;;7.70;5.57;;;2.40;99.90;;;;;;5394888;26;20004;-89
2024/04/18 01:35:34;;;;;;;7.40;5.27;;;2.40;99.90;;;;;;5361402;26;20014;-90
2024/04/18 01:37:59;;;;;;;9.67;6.03;;;2.40;99.90;;;;;;5394775;26;20009;-89
2024/04/18 01:40:25;;;;;;;10.60;5.47;;;2.40;99.90;;;;;;5395587;26;19999;-89
2024/04/18 01:42:50;;;;;;;7.30;5.43;;;2.40;99.90;;;;;;5391698;26;20044;-91
2024/04/18 01:45:16;;;;;;;7.43;5.90;;;2.40;99.90;;;;;;5362101;26;20161;-89
2024/04/18 01:47:42;;;;;;;9.73;6.10;;;2.40;99.90;;;;;;5393340;26;20031;-90
2024/04/18 01:50:08;;;;;;;6.07;5.30;;;2.50;99.90;;;;;;5394940;26;20018;-89
2024/04/18 01:52:34;;;;;;;7.30;5.30;;;2.50;99.90;;;;;;5394874;26;20011;-89
2024/04/18 01:54:59;;;;;;;6.30;5.13;;;2.50;99.90;;;;;;5392335;26;20054;-89
2024/04/18 01:57:25;;;;;;;8.37;5.73;;;2.50;99.90;;;;;;5360173;26;20035;-90
2024/04/18 01:59:51;;;;;;;9.83;5.50;;;2.50;99.90;;;;;;5393035;26;20018;-92
2024/04/18 02:02:17;;;;;;;12.30;6.57;;;2.50;99.90;;;;;;5393800;26;20452;-89
2024/04/18 02:04:43;;;;;;;7.60;5.60;;;2.50;99.90;;;;;;5394744;26;20010;-89
2024/04/18 02:07:09;;;;;;;7.03;5.60;;;2.50;99.90;;;;;;5393972;26;20352;-87
2024/04/18 02:09:34;;;;;;;8.83;6.47;;;2.60;99.90;;;;;;5397038;26;20007;-88
2024/04/18 02:12:00;;;;;;;9.63;5.97;;;2.60;99.90;;;;;;5362780;26;19999;-91
2024/04/18 02:14:25;;;;;;;7.73;5.50;;;2.60;99.90;;;;;;5396299;26;20069;-88
2024/04/18 02:16:51;;;;;;;8.20;5.97;;;2.60;99.90;;;;;;5396519;26;20011;-87
2024/04/18 02:19:16;;;;;;;9.47;5.93;;;2.70;99.90;;;;;;5399171;26;20000;-88
2024/04/18 02:21:42;;;;;;;14.50;7.23;;;2.60;99.90;;;;;;5397485;26;19999;-88
2024/04/18 02:24:07;;;;;;;8.27;6.80;;;2.70;99.90;;;;;;5398123;26;20059;-88
2024/04/18 02:26:35;;;;;;;9.30;6.80;;;2.70;99.90;;;;;;5400505;26;20011;-88
2024/04/18 02:29:01;;;;;;;10.03;6.67;;;2.70;99.90;;;;;;5399687;26;20525;-89
2024/04/18 02:31:27;;;;;;;10.03;7.00;;;2.80;99.90;;;;;;5400554;26;19996;-88
2024/04/18 02:33:53;;;;;;;9.90;6.40;;;2.80;99.90;;;;;;5402225;26;21180;-87
2024/04/18 02:36:19;;;;;;;9.70;7.23;;;2.80;99.90;;;;;;5405405;26;20000;-87
2024/04/18 02:38:44;;;;;;;9.80;7.03;;;2.80;99.90;;;;;;5406461;26;20019;-88
2024/04/18 02:41:11;;;;;;;11.27;7.90;;;2.90;99.90;;;;;;5403389;26;19995;-87
2024/04/18 02:43:37;;;;;;;8.00;6.87;;;2.90;99.90;;;;;;5398297;26;20007;-86
2024/04/18 02:46:03;;;;;;;8.37;6.40;;;2.90;99.90;;;;;;5398543;26;20004;-86
2024/04/18 02:48:28;;;;;;;9.40;7.00;;;2.90;99.90;;;;;;5399766;26;20004;-86
2024/04/18 02:50:54;;;;;;;9.80;7.23;;;2.90;99.90;;;;;;5397857;26;19999;-86
2024/04/18 02:53:20;;;;;;;13.07;7.80;;;2.90;99.90;;;;;;5400873;26;19996;-86
2024/04/18 02:55:45;;;;;;;11.47;7.90;;;2.90;99.90;;;;;;5400594;26;20050;-86
2024/04/18 02:58:11;;;;;;;9.83;8.20;;;2.90;99.90;;;;;;5403510;26;19999;-86
2024/04/18 03:00:36;;;;;;;12.03;7.90;;;2.90;99.90;;;;;;5401730;26;20001;-86
2024/04/18 03:03:02;;;;;;;10.53;8.07;;;2.90;99.90;;;;;;5400528;26;20004;-88
2024/04/18 03:05:28;;;;;;;9.87;7.47;;;3.00;99.90;;;;;;5401639;26;19999;-86
2024/04/18 03:07:57;;;;;;;11.97;7.60;;;3.00;99.90;;;;;;5400474;26;20019;-86
2024/04/18 03:10:24;;;;;;;10.13;7.33;;;3.00;99.90;;;;;;5366140;26;20006;-86
2024/04/18 03:12:54;;;;;;;8.53;7.33;;;3.00;99.90;;;;;;5400426;26;20007;-86
2024/04/18 03:15:20;;;;;;;9.13;7.53;;;3.00;99.90;;;;;;5399855;26;20016;-87
2024/04/18 03:17:53;;;;;;;9.50;7.90;;;3.00;99.90;;;;;;5399440;26;20012;-86
2024/04/18 03:20:19;;;;;;;11.20;8.53;;;3.00;99.90;;;;;;5398435;26;20008;-86
2024/04/18 03:22:45;;;;;;;9.83;7.70;;;3.00;99.90;;;;;;5368358;26;20057;-86
2024/04/18 03:25:10;;;;;;;13.30;8.47;;;3.00;99.90;;;;;;5399145;26;21209;-86
2024/04/18 03:27:36;;;;;;;10.80;8.00;;;3.00;99.90;;;;;;5398185;26;20023;-86
2024/04/18 03:30:02;;;;;;;12.23;8.67;;;3.00;99.90;;;;;;5402810;26;20136;-86
2024/04/18 03:32:28;;;;;;;10.80;8.07;;;3.00;99.90;;;;;;5400178;26;20007;-85
2024/04/18 03:34:53;;;;;;;11.27;9.00;;;3.00;99.90;;;;;;5369028;26;20016;-86
2024/04/18 03:37:20;;;;;;;12.33;8.37;;;3.00;99.90;;;;;;5402081;26;20007;-86
2024/04/18 03:39:46;;;;;;;10.27;8.27;;;3.00;99.90;;;;;;5400918;26;20072;-86
2024/04/18 03:42:11;;;;;;;10.40;8.20;;;3.00;99.90;;;;;;5400302;26;20004;-86
2024/04/18 03:44:37;;;;;;;10.73;8.13;;;3.00;99.90;;;;;;5401972;26;20027;-86
2024/04/18 03:47:02;;;;;;;8.73;7.30;;;3.00;99.90;;;;;;5399732;26;19999;-86
2024/04/18 03:49:28;;;;;;;11.63;8.40;;;3.00;99.90;;;;;;5397945;26;20792;-86
2024/04/18 03:51:54;;;;;;;12.27;8.03;;;3.00;99.90;;;;;;5399266;26;20365;-86
2024/04/18 03:54:21;;;;;;;11.20;8.23;;;3.00;99.90;;;;;;5401251;26;20075;-86
2024/04/18 03:56:48;;;;;;;12.00;8.67;;;3.00;99.90;;;;;;5399503;26;19996;-86
2024/04/18 03:59:13;;;;;;;11.63;8.97;;;3.00;99.90;;;;;;5400627;26;20691;-86
2024/04/18 04:01:39;;;;;;;10.60;8.47;;;3.00;99.90;;;;;;5398748;26;20011;-86
2024/04/18 04:04:05;;;;;;;13.77;9.03;;;3.00;99.90;;;;;;5398603;26;20615;-86
2024/04/18 04:06:31;;;;;;;11.53;9.10;;;3.00;99.90;;;;;;5393843;26;20067;-88
2024/04/18 04:08:56;;;;;;;12.97;8.90;;;3.00;99.90;;;;;;5391863;26;21807;-87
2024/04/18 04:11:22;;;;;;;9.70;8.17;;;3.10;99.90;;;;;;5357875;26;20000;-88
2024/04/18 04:13:47;;;;;;;10.17;8.23;;;3.10;99.90;;;;;;5390567;26;20030;-87
2024/04/18 04:16:13;;;;;;;9.33;8.10;;;3.10;99.90;;;;;;5365090;26;20256;-88
2024/04/18 04:18:38;;;;;;;11.63;9.43;;;3.10;99.90;;;;;;5395328;26;20084;-87
2024/04/18 04:21:04;;;;;;;11.80;9.00;;;3.10;99.90;;;;;;5392781;26;20003;-85
2024/04/18 04:23:32;;;;;;;11.70;8.73;;;3.10;99.90;;;;;;5397425;26;20004;-84
2024/04/18 04:25:58;;;;;;;14.00;9.53;;;3.20;99.90;;;;;;5398030;26;20133;-85
2024/04/18 04:28:23;;;;;;;12.63;9.37;;;3.20;99.90;;;;;;5399019;26;20017;-85
2024/04/18 04:30:49;;;;;;;12.60;9.07;;;3.20;99.90;;;;;;5363579;26;20916;-85
2024/04/18 04:33:14;;;;;;;12.30;9.17;;;3.20;99.90;;;;;;5398465;26;20008;-85
2024/04/18 04:35:40;;;;;;;11.47;8.60;;;3.20;99.90;;;;;;5397862;26;20023;-85
2024/04/18 04:38:05;;;;;;;12.00;9.63;;;3.20;99.90;;;;;;5398912;26;20076;-85
2024/04/18 04:40:31;;;;;;;10.33;8.77;;;3.20;99.90;;;;;;5396557;26;20008;-85
2024/04/18 04:42:57;;;;;;;10.27;8.83;;;3.20;99.90;;;;;;5398105;26;20008;-85
2024/04/18 04:45:23;;;;;;;12.43;9.10;;;3.20;99.90;;;;;;5394946;26;19996;-85
2024/04/18 04:47:50;;;;;;;10.43;8.53;;;3.30;99.90;;;;;;5396732;26;20523;-85
2024/04/18 04:50:16;;;;;;;11.47;9.27;;;3.30;99.90;;;;;;5397202;26;20133;-85
2024/04/18 04:52:41;;;;;;;10.47;8.57;;;3.30;99.90;;;;;;5400213;26;20014;-85
2024/04/18 04:55:06;;;;;;;10.63;8.93;;;3.30;99.90;;;;;;5403852;26;20000;-85
2024/04/18 04:57:32;;;;;;;11.27;8.87;;;3.30;99.90;;;;;;5401491;26;20023;-85
2024/04/18 04:59:58;;;;;;;11.07;8.57;;;3.30;99.90;;;;;;5400070;26;20031;-85
2024/04/18 05:02:23;;;;;;;12.03;9.73;;;3.30;99.90;;;;;;5401703;26;19999;-85
2024/04/18 05:04:50;;;;;;;9.17;8.17;;;3.30;99.90;;;;;;5397230;26;20008;-85
2024/04/18 05:07:15;;;;;;;7.97;6.57;;;3.30;99.90;;;;;;5394547;26;20000;-85
2024/04/18 05:09:41;;;;;;;6.50;5.73;;;3.30;99.90;;;;;;5399899;26;20023;-85
2024/04/18 05:12:07;;;;;;;6.17;5.57;;;3.30;99.90;;;;;;5400935;26;20401;-85
2024/04/18 05:14:32;;;;;;;5.97;5.37;;;3.30;99.90;;;;;;5398660;26;20084;-85
2024/04/18 05:16:58;;;;;;;6.40;5.60;;;3.20;99.90;;;;;;5399580;26;20051;-84
2024/04/18 05:19:24;;;;;;;6.60;4.73;;;3.20;99.90;;;;;;5399756;26;19999;-85
2024/04/18 05:21:49;;;;;;;7.53;5.87;;;3.10;99.90;;;;;;5397174;26;19995;-85
2024/04/18 05:24:15;;;;;;;6.87;6.13;;;3.00;99.90;;;;;;5400345;26;20004;-85
2024/04/18 05:26:40;;;;;;;6.57;5.43;;;3.00;99.90;;;;;;5365364;26;20003;-85
2024/04/18 05:31:50;;;;;;;6.83;5.80;;;2.90;99.90;;;;;;5400332;26;20029;-85
2024/04/18 05:34:16;;;;;;;5.97;5.23;;;2.90;99.90;;;;;;5394840;26;20456;-85
2024/04/18 05:36:45;;;;;;;9.60;5.90;;;2.90;99.90;;;;;;5400737;26;20018;-84
2024/04/18 05:39:11;;;;;;;7.27;5.53;;;2.80;99.90;;;;;;5404670;26;19999;-85
2024/04/18 05:41:37;;;;;;;6.53;5.10;;;2.80;99.90;;;;;;5408460;26;20114;-85
2024/04/18 05:44:03;;;;;;;5.97;5.20;;;2.70;99.90;;;;;;5407536;26;20008;-86
2024/04/18 05:46:29;;;;;;;5.67;5.07;;;2.60;99.90;;;;;;5396451;26;20000;-85
2024/04/18 05:48:55;;;;;;;6.37;5.67;;;2.60;99.90;;;;;;5398244;26;20004;-85
2024/04/18 05:51:21;;;;;;;5.70;5.03;;;2.50;99.90;;;;;;5370414;26;20016;-85
2024/04/18 05:53:46;;;;;;;6.70;5.20;;;2.40;99.90;;;;;;5400421;26;20689;-85
2024/04/18 05:56:12;;;;;;;6.57;5.67;;;2.40;99.90;;;;;;5400471;26;19995;-86
2024/04/18 05:58:38;;;;;;;6.63;5.73;;;2.30;99.90;;;;;;5401569;26;20357;-86
2024/04/18 06:01:05;;;;;;;7.73;5.30;;;2.30;99.90;;;;;;5360068;26;20084;-88
2024/04/18 06:03:32;;;;;;;6.03;5.40;;;2.20;99.90;;;;;;5390794;26;20905;-87
2024/04/18 06:05:59;;;;;;;6.10;5.50;;;2.20;99.90;;;;;;5395127;26;19999;-87
2024/04/18 06:08:25;;;;;;;6.77;5.77;;;2.10;99.90;;;;;;5392386;26;20008;-87
2024/04/18 06:10:50;;;;;;;6.63;5.70;;;2.10;99.90;;;;;;5391586;26;20004;-87
2024/04/18 06:13:16;;;;;;;6.70;5.90;;;2.00;99.90;;;;;;5391624;26;20015;-87
2024/04/18 06:15:43;;;;;;;7.27;5.87;;;2.00;99.90;;;;;;5389300;26;19992;-87
2024/04/18 06:18:09;;;;;;;7.70;6.43;;;2.00;99.90;;;;;;5389230;26;20043;-87
2024/04/18 06:20:45;;;;;;;7.07;6.03;;;2.00;99.90;;;;;;5389262;26;20003;-86
2024/04/18 06:23:11;;;;;;;6.87;6.10;;;2.00;99.90;;;;;;5389492;26;20428;-87
2024/04/18 06:25:37;;;;;;;7.07;5.87;;;1.90;99.90;;;;;;5383509;26;20026;-87
2024/04/18 06:28:07;;;;;;;8.83;6.00;;;1.90;99.90;;;;;;5392018;26;19999;-87
2024/04/18 06:30:32;;;;;;;7.87;6.10;;;1.90;99.90;;;;;;5389631;26;20013;-87
2024/04/18 06:32:58;;;;;;;6.87;5.53;;;1.90;99.90;;;;;;5388536;26;20008;-87
2024/04/18 06:35:24;;;;;;;6.80;5.63;;;1.90;99.90;;;;;;5388591;26;20008;-87
2024/04/18 06:37:49;;;;;;;8.30;6.37;;;1.90;99.90;;;;;;5388628;26;20004;-87
2024/04/18 06:40:15;;;;;;;10.40;6.13;;;1.90;99.90;;;;;;5390212;26;20008;-87
2024/04/18 06:42:41;;;;;;;9.67;6.77;;;1.90;99.90;;;;;;5391474;26;20039;-88
2024/04/18 06:45:07;;;;;;;7.60;6.50;;;1.90;99.90;;;;;;5389162;26;20084;-87
2024/04/18 06:47:32;;;;;;;10.70;6.37;;;1.90;99.90;;;;;;5389672;26;20021;-87
2024/04/18 06:49:57;;;;;;;8.83;6.90;;;1.90;99.90;;;;;;5389010;26;20329;-88
2024/04/18 06:52:23;;;;;;;8.17;6.57;;;2.00;99.90;;;;;;5356446;26;19999;-87
2024/04/18 06:54:48;;;;;;;8.70;7.20;;;2.00;99.90;;;;;;5391723;26;20004;-88
2024/04/18 06:57:14;;;;;;;8.40;7.20;;;2.10;99.90;;;;;;5390906;26;20044;-87
2024/04/18 06:59:39;;;;;;;7.83;6.93;;;2.10;99.90;;;;;;5392110;26;20004;-88
2024/04/18 07:02:05;;;;;;;9.57;7.03;;;2.10;99.90;;;;;;5391506;26;20471;-87
2024/04/18 07:04:31;;;;;;;8.33;7.03;;;2.20;99.90;;;;;;5390215;26;20038;-88
2024/04/18 07:06:58;;;;;;;8.73;7.20;;;2.30;99.90;;;;;;5350841;26;20367;-87
2024/04/18 07:09:23;;;;;;;8.67;6.93;;;2.30;99.90;;;;;;5392083;26;20004;-87
2024/04/18 07:11:49;;;;;;;9.00;7.83;;;2.40;99.90;;;;;;5386930;26;20018;-87
2024/04/18 07:14:15;;;;;;;8.73;7.53;;;2.50;99.90;;;;;;5387370;26;20003;-87
2024/04/18 07:16:41;;;;;;;9.37;7.67;;;2.50;99.90;;;;;;5389343;26;20034;-88
2024/04/18 07:19:06;;;;;;;8.93;7.40;;;2.60;99.90;;;;;;5391907;26;20003;-87
2024/04/18 07:21:32;;;;;;;8.73;7.20;;;2.70;99.90;;;;;;5389101;26;20012;-88
2024/04/18 07:23:57;;;;;;;8.50;7.20;;;2.70;99.90;;;;;;5391076;26;20000;-87
2024/04/18 07:26:23;;;;;;;8.77;7.20;;;2.70;99.90;;;;;;5391776;26;20008;-86
2024/04/18 07:28:48;;;;;;;8.27;7.10;;;2.80;99.90;;;;;;5390821;26;20011;-87
2024/04/18 07:31:14;;;;;;;9.67;7.27;;;2.90;99.90;;;;;;5390357;26;20499;-87
2024/04/18 07:33:40;;;;;;;8.23;6.63;;;3.00;99.90;;;;;;5392663;26;20008;-87
2024/04/18 07:36:06;;;;;;;7.70;6.60;;;3.10;99.90;;;;;;5391410;26;20023;-89
2024/04/18 07:38:31;;;;;;;10.00;7.23;;;3.20;99.90;;;;;;5388520;26;20020;-86
2024/04/18 07:40:57;;;;;;;9.07;6.57;;;3.30;99.90;;;;;;5391764;26;20460;-87
2024/04/18 07:43:22;;;;;;;8.83;7.50;;;3.40;99.90;;;;;;5393324;26;20059;-87
2024/04/18 07:45:48;;;;;;;9.30;7.77;;;3.50;99.90;;;;;;5390567;26;20011;-86
2024/04/18 07:48:14;;;;;;;9.00;7.63;;;3.60;99.90;;;;;;5357994;26;20076;-76
2024/04/18 07:50:39;;;;;;;9.90;7.80;;;3.70;99.90;;;;;;5388251;26;20007;-76
2024/04/18 07:53:05;;;;;;;9.80;7.87;;;3.80;99.90;;;;;;5390425;26;20008;-75
2024/04/18 07:55:30;;;;;;;8.70;7.30;;;3.90;99.90;;;;;;5391005;26;20007;-87
2024/04/18 07:57:56;;;;;;;11.33;7.33;;;4.00;99.90;;;;;;5389860;26;20848;-85
2024/04/18 08:00:21;;;;;;;9.07;7.93;;;4.10;99.90;;;;;;5360134;26;20006;-85
2024/04/18 08:02:49;;;;;;;8.60;7.70;;;4.20;99.90;;;;;;5355703;26;20003;-86
2024/04/18 08:05:15;;;;;;;8.97;7.07;;;4.40;99.90;;;;;;5352440;26;20684;-85
2024/04/18 08:07:41;;;;;;;8.67;7.73;;;4.50;99.90;;;;;;5394921;26;19999;-88
2024/04/18 08:10:06;;;;;;;9.60;8.40;;;4.70;99.90;;;;;;5395189;26;19996;-86
2024/04/18 08:12:32;;;;;;;8.73;7.57;;;4.80;99.90;;;;;;5395740;26;20015;-85
2024/04/18 08:14:57;;;;;;;9.07;7.03;;;4.90;99.90;;;;;;5361527;26;20050;-85
2024/04/18 08:17:23;;;;;;;8.10;7.07;;;5.10;99.90;;;;;;5394927;26;20488;-86
2024/04/18 08:19:49;;;;;;;7.90;6.90;;;5.20;99.90;;;;;;5392062;26;20646;-86
2024/04/18 08:22:14;;;;;;;7.67;6.60;;;5.50;99.90;;;;;;5391374;26;19999;-86
2024/04/18 08:24:40;;;;;;;7.67;6.23;;;5.70;99.90;;;;;;5382761;26;20019;-86
2024/04/18 08:27:08;;;;;;;6.90;6.13;;;5.90;99.90;;;;;;5387704;26;20332;-86
2024/04/18 08:29:33;;;;;;;8.23;7.30;;;5.90;99.90;;;;;;5390500;26;20012;-86
2024/04/18 08:31:59;;;;;;;9.13;6.50;;;6.00;99.90;;;;;;5391237;26;20022;-86
2024/04/18 08:34:24;;;;;;;6.90;6.13;;;6.00;99.90;;;;;;5392318;26;20117;-87
2024/04/18 08:36:50;;;;;;;7.10;5.97;;;5.90;99.90;;;;;;5357571;26;20019;-87
2024/04/18 08:39:16;;;;;;;7.60;5.97;;;5.80;99.90;;;;;;5361173;26;20003;-87
2024/04/18 08:41:43;;;;;;;6.77;5.77;;;5.70;99.90;;;;;;5393770;26;20012;-86
2024/04/18 08:44:10;;;;;;;7.37;5.60;;;5.60;99.90;;;;;;5388899;26;20004;-86
2024/04/18 08:46:37;;;;;;;6.67;5.67;;;5.60;99.90;;;;;;5392799;26;20053;-86
2024/04/18 08:49:05;;;;;;;7.20;6.40;;;5.70;99.90;;;;;;5393921;26;20019;-87
2024/04/18 08:51:34;;;;;;;6.80;6.03;;;5.80;99.90;;;;;;5395669;26;19996;-86
2024/04/18 08:54:00;;;;;;;8.27;6.57;;;5.90;99.90;;;;;;5389887;26;20011;-87
2024/04/18 08:56:31;;;;;;;6.50;5.37;;;6.10;99.90;;;;;;5392892;26;20050;-87
2024/04/18 08:58:56;;;;;;;6.30;5.30;;;6.30;99.90;;;;;;5392270;26;20051;-87
2024/04/18 09:01:23;;;;;;;6.13;5.47;;;6.40;99.90;;;;;;5391612;26;20010;-87
2024/04/18 09:03:54;;;;;;;5.70;4.97;;;6.40;99.90;;;;;;5394581;26;20028;-86
2024/04/18 09:06:20;;;;;;;5.90;5.10;;;6.40;99.90;;;;;;5392475;26;20789;-86
2024/04/18 09:08:50;;;;;;;6.70;5.37;;;6.40;99.90;;;;;;5392431;26;20053;-86
2024/04/18 09:11:16;;;;;;;8.20;5.50;;;6.40;99.90;;;;;;5395484;26;21690;-86
2024/04/18 09:13:42;;;;;;;6.63;5.17;;;6.60;99.90;;;;;;5396325;26;20018;-86
2024/04/18 09:16:08;;;;;;;6.47;5.00;;;6.70;99.90;;;;;;5394345;26;20027;-87
2024/04/18 09:18:33;;;;;;;6.57;5.23;;;6.90;99.90;;;;;;5392526;26;19996;-85
2024/04/18 09:20:59;;;;;;;6.20;5.27;;;7.00;99.90;;;;;;5362187;26;20479;-86
2024/04/18 09:23:25;;;;;;;5.23;4.47;;;7.20;99.90;;;;;;5397225;26;20122;-86
2024/04/18 09:25:54;;;;;;;8.80;4.90;;;7.40;99.90;;;;;;5395508;26;20030;-86
2024/04/18 09:28:20;;;;;;;7.33;5.17;;;7.40;99.90;;;;;;5394858;26;20007;-86
2024/04/18 09:30:55;;;;;;;5.77;4.83;;;7.40;99.90;;;;;;5398067;26;20004;-85
2024/04/18 09:33:21;;;;;;;5.65;4.72;;;7.30;99.90;;;;;;5399059;26;19999;-86
2024/04/18 09:35:55;;;;;;;7.07;5.40;;;7.20;99.90;;;;;;5401799;26;20025;-86
2024/04/18 09:38:22;;;;;;;6.60;5.70;;;6.90;99.90;;;;;;5399910;26;20054;-86
2024/04/18 09:41:08;;;;;;;6.27;5.10;;;6.90;99.90;;;;;;5395974;26;20008;-86
2024/04/18 09:43:44;;;;;;;13.70;8.60;;;7.20;99.90;;;;;;5391656;26;20060;-85
2024/04/18 09:46:11;;;;;;;6.77;5.10;;;7.50;99.90;;;;;;5396028;26;20008;-85
2024/04/18 09:48:39;;;;;;;4.67;3.40;;;7.70;99.90;;;;;;5397476;26;20004;-86
2024/04/18 09:51:05;;;;;;;5.60;3.40;;;8.00;99.90;;;;;;5396505;26;20119;-76
2024/04/18 09:53:35;;;;;;;5.77;4.20;;;8.50;99.90;;;;;;5394097;26;20000;-88
2024/04/18 09:56:01;;;;;;;4.17;3.60;;;8.60;99.90;;;;;;5393763;26;20534;-88
2024/04/18 09:58:27;;;;;;;4.47;3.70;;;8.60;99.90;;;;;;5392454;26;20340;-87
2024/04/18 10:00:54;;;;;;;5.60;3.53;;;8.90;99.90;;;;;;5392984;26;20016;-87
2024/04/18 10:03:20;;;;;;;5.13;4.00;;;9.20;99.90;;;;;;5391869;26;20912;-76
2024/04/18 10:05:50;;;;;;;5.53;3.13;;;9.20;99.90;;;;;;5390584;26;20089;-82
2024/04/18 10:08:20;;;;;;;6.80;3.83;;;8.90;99.90;;;;;;5399581;26;20031;-86
2024/04/18 10:10:46;;;;;;;5.93;4.27;;;8.30;99.90;;;;;;5397302;26;20003;-85
2024/04/18 10:13:12;;;;;;;4.47;3.87;;;7.60;99.90;;;;;;5397521;26;20014;-85
2024/04/18 10:15:37;;;;;;;5.87;4.33;;;7.10;99.90;;;;;;5398487;26;20011;-85
2024/04/18 10:18:16;;;;;;;4.67;4.03;;;6.70;99.90;;;;;;5399871;26;19996;-85
2024/04/18 10:20:43;;;;;;;5.53;4.20;;;6.40;99.90;;;;;;5398444;26;20019;-85
2024/04/18 10:23:16;;;;;;;7.07;4.97;;;6.20;99.90;;;;;;5400516;26;19996;-85
2024/04/18 10:25:45;;;;;;;5.43;4.50;;;6.10;99.90;;;;;;5400048;26;20003;-85
2024/04/18 10:28:26;;;;;;;8.90;6.37;;;6.30;99.90;;;;;;5397133;26;20012;-86
2024/04/18 10:30:52;;;;;;;6.60;4.90;;;6.50;99.90;;;;;;5396701;26;20016;-86
2024/04/18 10:33:29;;;;;;;8.33;5.50;;;6.90;99.90;;;;;;5394650;26;20086;-85
2024/04/18 10:35:54;;;;;;;5.30;4.17;;;7.20;99.90;;;;;;5358845;26;20106;-86
2024/04/18 10:38:27;;;;;;;5.10;4.23;;;7.50;99.90;;;;;;5391248;26;20019;-87
2024/04/18 10:41:03;;;;;;;7.90;4.20;;;7.70;99.90;;;;;;5391384;26;20004;-87
2024/04/18 10:43:33;;;;;;;4.73;3.97;;;7.90;99.90;;;;;;5393369;26;20779;-86
2024/04/18 10:46:04;;;;;;;8.53;4.87;;;7.90;99.90;;;;;;5395361;26;20499;-86
2024/04/18 10:48:30;;;;;;;4.77;3.77;;;7.80;99.90;;;;;;5391893;26;20053;-86
2024/04/18 10:50:55;;;;;;;4.97;3.80;;;7.70;99.90;;;;;;5389865;26;20015;-86
2024/04/18 10:53:21;;;;;;;4.63;3.60;;;7.90;99.90;;;;;;5393270;26;20030;-86
2024/04/18 10:55:47;;;;;;;4.13;3.20;;;8.20;99.90;;;;;;5389349;26;21726;-85
2024/04/18 10:58:15;;;;;;;4.03;3.13;;;8.70;99.90;;;;;;5392803;26;20050;-86
2024/04/18 11:00:44;;;;;;;5.00;3.40;;;9.30;99.90;;;;;;5395324;26;20007;-86
2024/04/18 11:03:10;;;;;;;3.87;3.00;;;9.60;99.90;;;;;;5395450;26;20003;-86
2024/04/18 11:05:43;;;;;;;4.83;3.13;;;9.70;99.90;;;;;;5394913;26;20021;-85
2024/04/18 11:08:09;;;;;;;3.37;2.60;;;9.50;99.90;;;;;;5389636;26;20011;-83
2024/04/18 11:10:37;;;;;;;3.80;2.83;;;9.30;99.90;;;;;;5392095;26;20100;-84
2024/04/18 11:13:03;;;;;;;5.17;2.20;;;9.40;99.90;;;;;;5390959;26;20683;-85
2024/04/18 11:15:30;;;;;;;3.57;2.30;;;9.80;99.90;;;;;;5388566;26;19999;-84
2024/04/18 11:17:56;;;;;;;4.63;2.80;;;10.00;99.90;;;;;;5388268;26;20117;-85
2024/04/18 11:20:22;;;;;;;4.13;2.93;;;10.30;99.90;;;;;;5393424;26;20008;-84
2024/04/18 11:22:48;;;;;;;3.60;2.87;;;10.40;99.90;;;;;;5358084;26;20051;-83
2024/04/18 11:25:14;;;;;;;5.10;4.27;;;10.30;99.90;;;;;;5394747;26;20001;-88
2024/04/18 11:27:40;;;;;;;5.40;4.50;;;9.90;99.90;;;;;;5386822;26;20004;-85
2024/04/18 11:30:06;;;;;;;6.87;4.70;;;9.70;99.90;;;;;;5392222;26;20022;-85
2024/04/18 11:32:32;;;;;;;5.20;4.10;;;9.30;99.90;;;;;;5358604;26;19999;-85
2024/04/18 11:34:59;;;;;;;5.73;4.37;;;9.10;99.90;;;;;;5392276;26;20011;-86
2024/04/18 11:37:24;;;;;;;5.93;4.37;;;8.80;99.90;;;;;;5388126;26;20016;-85
2024/04/18 11:39:50;;;;;;;5.60;4.00;;;8.60;99.90;;;;;;5392420;26;20345;-85
2024/04/18 11:42:15;;;;;;;4.43;3.63;;;8.50;99.90;;;;;;5392161;26;20068;-85
2024/04/18 11:44:42;;;;;;;4.90;3.80;;;8.50;99.90;;;;;;5359361;26;19996;-86
2024/04/18 11:47:08;;;;;;;4.60;4.03;;;8.60;99.90;;;;;;5390527;26;20019;-86
2024/04/18 11:49:34;;;;;;;4.80;3.90;;;8.80;99.90;;;;;;5395536;26;20004;-85
2024/04/18 11:52:00;;;;;;;4.27;3.30;;;9.10;99.90;;;;;;5392643;26;20004;-85
2024/04/18 11:54:25;;;;;;;4.97;3.80;;;9.60;99.90;;;;;;5391795;26;20004;-85
2024/04/18 11:56:51;;;;;;;4.67;3.50;;;10.00;99.90;;;;;;5356935;26;19999;-85
2024/04/18 11:59:17;;;;;;;4.20;3.30;;;10.30;99.90;;;;;;5359299;26;20693;-85
2024/04/18 12:01:43;;;;;;;5.68;3.80;;;11.10;99.90;;;;;;5392226;26;20479;-85
2024/04/18 12:04:10;;;;;;;4.10;3.40;;;11.60;99.90;;;;;;5393565;26;20031;-85
2024/04/18 12:06:36;;;;;;;4.68;3.22;;;11.90;99.90;;;;;;5393002;26;19996;-85
2024/04/18 12:09:02;;;;;;;3.80;3.08;;;11.80;99.90;;;;;;5395237;26;20592;-85
2024/04/18 12:11:29;;;;;;;4.78;3.70;;;11.60;99.90;;;;;;5383706;26;20004;-85
2024/04/18 12:13:55;;;;;;;8.65;3.92;;;11.30;99.90;;;;;;5390680;26;20052;-85
2024/04/18 12:16:21;;;;;;;5.22;3.70;;;10.80;99.90;;;;;;5393319;26;20032;-84
2024/04/18 12:18:47;;;;;;;4.25;2.92;;;10.20;99.90;;;;;;5391166;26;20035;-85
2024/04/18 12:21:13;;;;;;;5.23;3.00;;;9.40;99.90;;;;;;5393119;26;20004;-85
2024/04/18 12:23:42;;;;;;;3.90;3.50;;;8.90;99.90;;;;;;5392191;26;20019;-85
2024/04/18 12:26:10;;;;;;;5.47;4.10;;;8.40;99.90;;;;;;5361106;26;20012;-85
2024/04/18 12:28:35;;;;;;;7.03;4.60;;;7.70;99.90;;;;;;5400703;26;20014;-84
2024/04/18 12:31:01;;;;;;;5.67;5.03;;;7.20;99.90;;;;;;5400214;26;20012;-84
2024/04/18 12:33:26;;;;;;;8.37;4.57;;;6.70;99.90;;;;;;5397060;26;20046;-83
2024/04/18 12:35:52;;;;;;;6.73;5.17;;;6.20;99.90;;;;;;5397945;26;19995;-82
2024/04/18 12:38:18;;;;;;;7.70;5.63;;;5.90;99.90;;;;;;5397440;26;20018;-83
2024/04/18 12:40:44;;;;;;;6.90;4.87;;;5.50;99.90;;;;;;5400732;26;20923;-83
2024/04/18 12:43:10;;;;;;;6.03;5.00;;;5.10;99.90;;;;;;5398982;26;21412;-84
2024/04/18 12:45:36;;;;;;;7.00;5.83;;;4.80;99.90;;;;;;5394432;26;20039;-85
2024/04/18 12:48:03;;;;;;;8.27;5.40;;;4.50;99.90;;;;;;5389693;26;20019;-86
2024/04/18 12:50:29;;;;;;;7.03;4.80;;;4.20;99.90;;;;;;5389399;26;20004;-86
2024/04/18 12:52:56;;;;;;;7.50;4.70;;;4.20;99.90;;;;;;5389785;26;20010;-87